createdAt,value
2018-06-07T00:00:14.006Z,15.80
2018-06-07T00:02:42.170Z,15.80
2018-06-07T00:05:10.311Z,15.70
2018-06-07T00:07:38.450Z,15.70
2018-06-07T00:10:06.621Z,15.70
2018-06-07T00:12:34.827Z,15.70
2018-06-07T00:15:03.043Z,15.80
2018-06-07T00:17:31.175Z,15.80
2018-06-07T00:19:59.325Z,15.90
2018-06-07T00:22:27.490Z,15.90
2018-06-07T00:24:55.624Z,15.90
2018-06-07T00:27:23.774Z,16.00
2018-06-07T00:29:51.983Z,16.00
2018-06-07T00:32:20.118Z,16.00
2018-06-07T00:34:48.250Z,16.10
2018-06-07T00:37:16.458Z,16.10
2018-06-07T00:39:44.607Z,16.10
2018-06-07T00:42:12.721Z,16.10
2018-06-07T00:44:40.875Z,16.20
2018-06-07T00:47:08.994Z,16.20
2018-06-07T00:49:37.936Z,16.20
2018-06-07T00:52:06.070Z,16.20
2018-06-07T00:54:34.245Z,16.30
2018-06-07T00:57:08.448Z,16.40
2018-06-07T00:59:36.581Z,16.40
2018-06-07T01:02:04.723Z,16.40
2018-06-07T01:04:32.865Z,16.40
2018-06-07T01:07:01.076Z,16.40
2018-06-07T01:09:29.228Z,16.50
2018-06-07T01:11:57.363Z,16.50
2018-06-07T01:14:25.624Z,16.60
2018-06-07T01:16:53.770Z,16.60
2018-06-07T01:19:21.921Z,16.70
2018-06-07T01:21:50.044Z,16.80
2018-06-07T01:24:18.177Z,16.90
2018-06-07T01:26:46.345Z,17.00
2018-06-07T01:29:26.972Z,17.10
2018-06-07T01:34:09.158Z,17.10
2018-06-07T01:36:37.307Z,17.10
2018-06-07T01:39:10.251Z,17.20
2018-06-07T01:41:38.430Z,17.20
2018-06-07T01:44:06.718Z,17.20
2018-06-07T01:46:34.912Z,17.20
2018-06-07T01:49:03.046Z,17.30
2018-06-07T01:51:31.167Z,17.30
2018-06-07T01:53:59.322Z,17.30
2018-06-07T01:56:27.443Z,17.30
2018-06-07T01:58:55.595Z,17.20
2018-06-07T02:01:23.744Z,17.20
2018-06-07T02:03:51.995Z,17.00
2018-06-07T02:06:20.131Z,17.00
2018-06-07T02:08:48.274Z,16.90
2018-06-07T02:11:17.475Z,16.90
2018-06-07T02:13:45.628Z,16.90
2018-06-07T02:16:13.770Z,16.80
2018-06-07T02:18:41.895Z,16.80
2018-06-07T02:21:10.038Z,16.80
2018-06-07T02:23:38.186Z,16.80
2018-06-07T02:26:06.349Z,16.80
2018-06-07T02:28:34.495Z,16.80
2018-06-07T02:31:02.661Z,16.70
2018-06-07T02:33:30.814Z,16.70
2018-06-07T02:35:58.974Z,16.70
2018-06-07T02:38:27.098Z,16.70
2018-06-07T02:40:55.254Z,16.70
2018-06-07T02:43:23.382Z,16.70
2018-06-07T02:45:52.117Z,16.60
2018-06-07T02:48:20.250Z,16.50
2018-06-07T02:50:48.399Z,16.50
2018-06-07T02:53:16.535Z,16.40
2018-06-07T02:55:44.677Z,16.30
2018-06-07T02:58:12.844Z,16.30
2018-06-07T03:00:40.967Z,16.30
2018-06-07T03:03:10.163Z,16.20
2018-06-07T03:05:38.326Z,16.20
2018-06-07T03:08:06.460Z,16.10
2018-06-07T03:10:34.611Z,16.10
2018-06-07T03:13:02.754Z,16.10
2018-06-07T03:15:30.891Z,16.10
2018-06-07T03:17:59.028Z,16.10
2018-06-07T03:20:27.150Z,16.00
2018-06-07T03:22:55.304Z,16.00
2018-06-07T03:25:23.439Z,16.00
2018-06-07T03:27:51.602Z,16.00
2018-06-07T03:30:19.706Z,15.90
2018-06-07T03:32:47.869Z,15.90
2018-06-07T03:35:16.034Z,15.90
2018-06-07T03:37:44.182Z,15.90
2018-06-07T03:40:12.346Z,15.90
2018-06-07T03:42:42.326Z,16.00
2018-06-07T03:45:10.447Z,16.00
2018-06-07T03:47:38.574Z,16.00
2018-06-07T03:50:06.722Z,16.00
2018-06-07T03:52:34.860Z,16.00
2018-06-07T03:55:02.985Z,16.00
2018-06-07T03:57:31.083Z,16.00
2018-06-07T03:59:59.250Z,16.00
2018-06-07T04:02:27.480Z,16.00
2018-06-07T04:04:55.518Z,16.10
2018-06-07T04:07:23.650Z,16.10
2018-06-07T04:09:51.791Z,16.10
2018-06-07T04:12:19.940Z,16.10
2018-06-07T04:14:48.074Z,16.20
2018-06-07T04:17:16.219Z,16.30
2018-06-07T04:19:44.373Z,16.40
2018-06-07T04:22:12.478Z,16.50
2018-06-07T04:24:40.620Z,16.60
2018-06-07T04:27:08.775Z,16.70
2018-06-07T04:29:36.910Z,16.80
2018-06-07T04:32:05.055Z,17.00
2018-06-07T04:34:33.308Z,17.10
2018-06-07T04:37:01.495Z,17.20
2018-06-07T04:39:29.636Z,17.30
2018-06-07T04:41:58.929Z,17.40
2018-06-07T04:44:27.070Z,17.60
2018-06-07T04:46:55.198Z,17.70
2018-06-07T04:49:23.340Z,17.80
2018-06-07T04:51:51.496Z,17.90
2018-06-07T04:54:19.643Z,18.00
2018-06-07T04:56:47.804Z,18.10
2018-06-07T04:59:15.940Z,18.10
2018-06-07T05:01:44.168Z,18.20
2018-06-07T05:04:12.357Z,18.30
2018-06-07T05:06:40.593Z,18.40
2018-06-07T05:09:08.656Z,18.60
2018-06-07T05:11:36.894Z,18.70
2018-06-07T05:14:05.028Z,18.80
2018-06-07T05:16:33.190Z,18.90
2018-06-07T05:19:03.741Z,19.00
2018-06-07T05:21:31.946Z,19.00
2018-06-07T05:24:01.448Z,19.00
2018-06-07T05:26:29.731Z,19.00
2018-06-07T05:28:57.898Z,19.00
2018-06-07T05:31:26.031Z,18.90
2018-06-07T05:33:54.331Z,18.90
2018-06-07T05:36:22.451Z,18.90
2018-06-07T05:38:50.656Z,18.90
2018-06-07T05:41:19.086Z,18.90
2018-06-07T05:43:47.211Z,18.90
2018-06-07T05:46:15.334Z,18.90
2018-06-07T05:48:43.474Z,19.00
2018-06-07T05:51:11.620Z,19.10
2018-06-07T05:53:39.742Z,19.20
2018-06-07T05:56:08.989Z,19.30
2018-06-07T05:58:37.213Z,19.30
2018-06-07T06:01:05.346Z,19.30
2018-06-07T06:03:33.522Z,19.20
2018-06-07T06:06:01.635Z,19.10
2018-06-07T06:08:29.800Z,19.10
2018-06-07T06:10:57.955Z,19.00
2018-06-07T06:13:26.110Z,19.00
2018-06-07T06:15:54.284Z,19.00
2018-06-07T06:18:22.446Z,19.10
2018-06-07T06:20:50.570Z,19.20
2018-06-07T06:23:18.801Z,19.30
2018-06-07T06:25:46.993Z,19.50
2018-06-07T06:28:15.111Z,19.60
2018-06-07T06:30:43.334Z,19.80
2018-06-07T06:33:11.490Z,20.00
2018-06-07T06:35:39.614Z,20.10
2018-06-07T06:38:40.609Z,20.20
2018-06-07T06:41:08.735Z,20.30
2018-06-07T06:43:36.858Z,20.40
2018-06-07T06:46:05.242Z,20.50
2018-06-07T06:48:33.416Z,20.70
2018-06-07T06:51:01.630Z,20.90
2018-06-07T06:53:29.763Z,21.30
2018-06-07T06:55:57.889Z,21.70
2018-06-07T06:58:26.002Z,21.90
2018-06-07T07:00:54.158Z,21.90
2018-06-07T07:03:22.326Z,21.80
2018-06-07T07:05:50.439Z,21.70
2018-06-07T07:08:18.569Z,21.70
2018-06-07T07:10:46.694Z,21.70
2018-06-07T07:13:14.812Z,21.60
2018-06-07T07:15:42.932Z,21.60
2018-06-07T07:18:11.068Z,21.70
2018-06-07T07:20:39.189Z,21.70
2018-06-07T07:23:07.330Z,21.70
2018-06-07T07:25:35.432Z,21.80
2018-06-07T07:28:03.582Z,21.90
2018-06-07T07:30:31.728Z,22.10
2018-06-07T07:32:59.828Z,22.20
2018-06-07T07:35:28.088Z,22.40
2018-06-07T07:37:56.190Z,22.60
2018-06-07T07:40:24.310Z,22.80
2018-06-07T07:42:52.422Z,23.00
2018-06-07T07:45:20.542Z,23.20
2018-06-07T07:47:48.656Z,23.40
2018-06-07T07:50:16.780Z,23.60
2018-06-07T07:52:44.930Z,23.70
2018-06-07T07:55:13.039Z,24.10
2018-06-07T07:57:41.159Z,24.30
2018-06-07T08:00:09.273Z,24.60
2018-06-07T08:02:37.387Z,24.80
2018-06-07T08:05:05.754Z,25.00
2018-06-07T08:07:33.870Z,25.10
2018-06-07T08:10:01.998Z,25.30
2018-06-07T08:12:30.122Z,25.50
2018-06-07T08:14:58.254Z,25.70
2018-06-07T08:17:26.371Z,25.70
2018-06-07T08:19:54.612Z,25.80
2018-06-07T08:22:22.734Z,25.90
2018-06-07T08:24:50.841Z,25.90
2018-06-07T08:27:18.995Z,26.00
2018-06-07T08:29:47.161Z,26.10
2018-06-07T08:32:15.231Z,26.00
2018-06-07T08:34:43.374Z,26.00
2018-06-07T08:37:11.490Z,25.90
2018-06-07T08:39:39.685Z,25.90
2018-06-07T08:42:07.899Z,25.80
2018-06-07T08:44:36.071Z,25.80
2018-06-07T08:47:04.155Z,26.00
2018-06-07T08:49:32.545Z,26.40
2018-06-07T08:52:00.826Z,26.70
2018-06-07T08:54:28.935Z,26.90
2018-06-07T08:56:57.050Z,27.00
2018-06-07T08:59:25.204Z,27.00
2018-06-07T09:01:53.327Z,27.10
2018-06-07T09:04:22.084Z,27.20
2018-06-07T09:06:50.205Z,27.10
2018-06-07T09:09:18.399Z,27.20
2018-06-07T09:11:46.530Z,27.50
2018-06-07T09:14:14.675Z,27.90
2018-06-07T09:16:42.939Z,28.20
2018-06-07T09:19:11.123Z,28.50
2018-06-07T09:21:39.245Z,28.70
2018-06-07T09:24:07.373Z,28.80
2018-06-07T09:26:35.523Z,29.00
2018-06-07T09:29:03.620Z,29.10
2018-06-07T09:31:31.765Z,29.30
2018-06-07T09:33:59.942Z,29.30
2018-06-07T09:36:28.087Z,29.30
2018-06-07T09:38:56.221Z,29.20
2018-06-07T09:41:24.333Z,28.80
2018-06-07T09:43:52.479Z,28.60
2018-06-07T09:46:20.682Z,28.40
2018-06-07T09:48:48.829Z,28.30
2018-06-07T09:51:16.947Z,28.10
2018-06-07T09:53:45.083Z,28.40
2018-06-07T09:56:13.195Z,28.80
2018-06-07T09:58:41.330Z,29.30
2018-06-07T10:01:09.714Z,29.70
2018-06-07T10:03:37.832Z,29.70
2018-06-07T10:06:05.941Z,29.60
2018-06-07T10:08:34.087Z,29.80
2018-06-07T10:11:02.507Z,29.30
2018-06-07T10:13:30.641Z,29.00
2018-06-07T10:15:58.766Z,28.90
2018-06-07T10:18:26.914Z,28.50
2018-06-07T10:20:55.034Z,28.40
2018-06-07T10:23:23.188Z,28.20
2018-06-07T10:25:51.334Z,28.10
2018-06-07T10:28:19.481Z,28.10
2018-06-07T10:30:47.611Z,28.30
2018-06-07T10:33:15.722Z,28.90
2018-06-07T10:35:43.871Z,29.20
2018-06-07T10:38:12.050Z,29.60
2018-06-07T10:40:40.345Z,29.80
2018-06-07T10:43:08.432Z,29.60
2018-06-07T10:45:36.548Z,29.50
2018-06-07T10:48:04.859Z,29.40
2018-06-07T10:50:33.314Z,29.50
2018-06-07T10:53:01.461Z,29.80
2018-06-07T10:55:29.858Z,30.00
2018-06-07T10:57:58.066Z,30.30
2018-06-07T11:00:26.263Z,30.60
2018-06-07T11:02:54.375Z,31.00
2018-06-07T11:05:22.512Z,31.20
2018-06-07T11:07:50.630Z,31.40
2018-06-07T11:10:18.794Z,31.10
2018-06-07T11:12:46.922Z,31.30
2018-06-07T11:15:15.062Z,31.60
2018-06-07T11:17:43.202Z,32.10
2018-06-07T11:20:11.322Z,32.20
2018-06-07T11:22:39.649Z,32.40
2018-06-07T11:25:07.821Z,32.10
2018-06-07T11:27:35.926Z,31.80
2018-06-07T11:30:05.202Z,31.60
2018-06-07T11:32:33.330Z,31.40
2018-06-07T11:35:01.480Z,31.00
2018-06-07T11:37:29.586Z,30.60
2018-06-07T11:39:57.722Z,30.50
2018-06-07T11:42:25.914Z,30.30
2018-06-07T11:44:54.050Z,30.20
2018-06-07T11:47:22.191Z,30.00
2018-06-07T11:49:50.355Z,30.00
2018-06-07T11:52:18.528Z,29.90
2018-06-07T11:54:46.981Z,30.10
2018-06-07T11:57:15.098Z,29.90
2018-06-07T11:59:43.236Z,30.10
2018-06-07T12:02:11.367Z,30.00
2018-06-07T12:04:39.493Z,29.60
2018-06-07T12:07:07.722Z,29.70
2018-06-07T12:09:35.874Z,29.90
2018-06-07T12:12:04.024Z,30.00
2018-06-07T12:14:32.267Z,30.20
2018-06-07T12:17:00.398Z,30.80
2018-06-07T12:19:28.618Z,31.30
2018-06-07T12:21:56.758Z,31.60
2018-06-07T12:24:24.926Z,32.00
2018-06-07T12:26:53.297Z,32.20
2018-06-07T12:29:21.451Z,31.90
2018-06-07T12:31:49.716Z,31.70
2018-06-07T12:34:17.898Z,31.30
2018-06-07T12:36:46.031Z,31.20
2018-06-07T12:39:14.151Z,31.00
2018-06-07T12:41:42.426Z,30.70
2018-06-07T12:44:10.706Z,30.50
2018-06-07T12:46:38.953Z,30.50
2018-06-07T12:49:07.035Z,30.60
2018-06-07T12:51:35.184Z,30.80
2018-06-07T12:54:03.312Z,30.90
2018-06-07T12:56:32.555Z,30.50
2018-06-07T12:59:00.777Z,30.20
2018-06-07T13:01:28.953Z,30.30
2018-06-07T13:03:57.208Z,30.40
2018-06-07T13:06:25.330Z,30.50
2018-06-07T13:08:54.187Z,30.60
2018-06-07T13:11:22.762Z,30.70
2018-06-07T13:13:51.015Z,30.90
2018-06-07T13:16:19.153Z,31.20
2018-06-07T13:18:48.403Z,31.50
2018-06-07T13:21:16.566Z,31.50
2018-06-07T13:23:44.690Z,31.10
2018-06-07T13:26:12.858Z,30.60
2018-06-07T13:28:41.073Z,30.30
2018-06-07T13:31:09.200Z,30.00
2018-06-07T13:33:37.362Z,29.70
2018-06-07T13:36:05.506Z,29.50
2018-06-07T13:38:33.761Z,29.10
2018-06-07T13:41:01.913Z,28.80
2018-06-07T13:43:30.131Z,28.60
2018-06-07T13:45:58.629Z,28.60
2018-06-07T13:48:27.153Z,28.50
2018-06-07T13:50:55.471Z,28.50
2018-06-07T13:53:23.562Z,29.00
2018-06-07T13:55:52.347Z,29.40
2018-06-07T13:58:20.684Z,29.70
2018-06-07T14:00:48.907Z,29.60
2018-06-07T14:03:17.128Z,29.40
2018-06-07T14:05:45.338Z,29.00
2018-06-07T14:08:13.447Z,28.70
2018-06-07T14:10:41.666Z,28.50
2018-06-07T14:13:09.754Z,28.50
2018-06-07T14:15:37.870Z,28.60
2018-06-07T14:18:06.045Z,28.50
2018-06-07T14:20:34.202Z,28.60
2018-06-07T14:23:02.364Z,28.60
2018-06-07T14:25:30.519Z,28.60
2018-06-07T14:27:58.756Z,28.60
2018-06-07T14:30:27.015Z,28.60
2018-06-07T14:32:55.270Z,28.60
2018-06-07T14:35:23.427Z,28.60
2018-06-07T14:37:51.586Z,28.50
2018-06-07T14:40:19.756Z,28.60
2018-06-07T14:42:47.926Z,28.60
2018-06-07T14:45:16.063Z,28.70
2018-06-07T14:47:44.707Z,28.70
2018-06-07T14:50:13.374Z,28.60
2018-06-07T14:52:41.867Z,28.50
2018-06-07T14:55:10.489Z,28.40
2018-06-07T14:57:39.026Z,28.20
2018-06-07T15:00:07.507Z,28.10
2018-06-07T15:02:36.810Z,27.90
2018-06-07T15:05:05.398Z,27.90
2018-06-07T15:07:33.541Z,28.00
2018-06-07T15:10:01.706Z,27.90
2018-06-07T15:12:29.861Z,28.00
2018-06-07T15:14:58.022Z,28.00
2018-06-07T15:17:26.219Z,28.10
2018-06-07T15:19:54.354Z,28.20
2018-06-07T15:22:22.542Z,28.30
2018-06-07T15:24:50.729Z,28.40
2018-06-07T15:27:18.887Z,28.40
2018-06-07T15:29:47.049Z,28.40
2018-06-07T15:32:15.203Z,28.40
2018-06-07T15:34:43.623Z,28.60
2018-06-07T15:37:11.819Z,28.90
2018-06-07T15:39:39.992Z,29.20
2018-06-07T15:42:08.324Z,29.60
2018-06-07T15:44:37.009Z,29.90
2018-06-07T15:47:05.493Z,30.30
2018-06-07T15:49:34.041Z,30.40
2018-06-07T15:52:02.286Z,30.50
2018-06-07T15:54:30.887Z,30.50
2018-06-07T15:56:59.050Z,30.70
2018-06-07T15:59:27.291Z,30.90
2018-06-07T16:01:56.722Z,30.60
2018-06-07T16:04:24.886Z,30.20
2018-06-07T16:06:53.482Z,29.70
2018-06-07T16:09:21.611Z,29.10
2018-06-07T16:11:49.818Z,28.50
2018-06-07T16:14:17.975Z,28.00
2018-06-07T16:16:47.036Z,27.60
2018-06-07T16:19:15.374Z,27.30
2018-06-07T16:21:44.076Z,27.00
2018-06-07T16:24:12.263Z,26.80
2018-06-07T16:26:40.463Z,26.60
2018-06-07T16:29:11.440Z,26.30
2018-06-07T16:31:39.850Z,26.10
2018-06-07T16:34:08.180Z,25.90
2018-06-07T16:36:36.392Z,25.60
2018-06-07T16:39:07.181Z,25.50
2018-06-07T16:41:35.424Z,25.30
2018-06-07T16:44:04.148Z,25.10
2018-06-07T16:46:32.539Z,25.00
2018-06-07T16:49:00.816Z,24.90
2018-06-07T16:51:29.146Z,24.70
2018-06-07T16:53:58.456Z,24.50
2018-06-07T16:56:26.662Z,24.40
2018-06-07T16:58:54.868Z,24.30
2018-06-07T17:01:23.087Z,24.10
2018-06-07T17:03:51.263Z,23.90
2018-06-07T17:06:19.571Z,23.70
2018-06-07T17:08:47.876Z,23.60
2018-06-07T17:11:16.077Z,23.40
2018-06-07T17:13:44.232Z,23.30
2018-06-07T17:16:12.428Z,23.20
2018-06-07T17:18:41.702Z,23.10
2018-06-07T17:21:09.868Z,23.10
2018-06-07T17:23:38.070Z,22.90
2018-06-07T17:26:06.483Z,22.70
2018-06-07T17:28:34.831Z,22.50
2018-06-07T17:31:02.954Z,22.30
2018-06-07T17:33:31.495Z,22.00
2018-06-07T17:35:59.656Z,21.80
2018-06-07T17:38:27.839Z,21.60
2018-06-07T17:40:56.011Z,21.40
2018-06-07T17:43:24.207Z,21.30
2018-06-07T17:45:52.402Z,21.10
2018-06-07T17:48:20.554Z,20.90
2018-06-07T17:50:48.706Z,20.60
2018-06-07T17:53:16.977Z,20.20
2018-06-07T17:55:45.120Z,20.00
2018-06-07T17:58:13.338Z,19.80
2018-06-07T18:00:41.474Z,19.60
2018-06-07T18:03:09.694Z,19.40
2018-06-07T18:05:38.094Z,19.20
2018-06-07T18:08:06.226Z,19.00
2018-06-07T18:10:34.461Z,18.90
2018-06-07T18:13:02.862Z,18.80
2018-06-07T18:15:31.927Z,18.70
2018-06-07T18:18:00.347Z,18.60
2018-06-07T18:20:28.621Z,18.50
2018-06-07T18:22:56.842Z,18.40
2018-06-07T18:25:25.294Z,18.30
2018-06-07T18:27:53.745Z,18.20
2018-06-07T18:30:22.007Z,18.10
2018-06-07T18:32:50.194Z,18.00
2018-06-07T18:35:18.454Z,17.90
2018-06-07T18:37:46.633Z,17.90
2018-06-07T18:40:14.806Z,17.90
2018-06-07T18:42:43.243Z,17.80
2018-06-07T18:45:11.416Z,17.70
2018-06-07T18:47:39.783Z,17.70
2018-06-07T18:50:08.288Z,17.80
2018-06-07T18:52:36.446Z,17.70
2018-06-07T18:55:04.623Z,17.70
2018-06-07T18:57:32.863Z,17.70
2018-06-07T19:00:01.028Z,17.70
2018-06-07T19:02:29.275Z,17.70
2018-06-07T19:04:57.433Z,17.70
2018-06-07T19:07:25.651Z,17.60
2018-06-07T19:09:59.278Z,17.50
2018-06-07T19:12:27.715Z,17.50
2018-06-07T19:15:01.321Z,17.50
2018-06-07T19:17:29.735Z,17.40
2018-06-07T19:20:03.376Z,17.30
2018-06-07T19:22:31.674Z,17.30
2018-06-07T19:25:06.221Z,17.20
2018-06-07T19:27:34.486Z,17.30
2018-06-07T19:30:02.884Z,17.30
2018-06-07T19:32:36.343Z,17.20
2018-06-07T19:35:05.174Z,17.10
2018-06-07T19:37:33.815Z,17.10
2018-06-07T19:40:07.420Z,17.10
2018-06-07T19:42:35.565Z,17.10
2018-06-07T19:45:03.784Z,17.10
2018-06-07T19:47:32.026Z,17.10
2018-06-07T19:50:00.238Z,17.10
2018-06-07T19:52:28.568Z,17.00
2018-06-07T19:54:56.775Z,17.00
2018-06-07T19:57:24.959Z,17.00
2018-06-07T19:59:53.182Z,17.00
2018-06-07T20:02:21.411Z,17.00
2018-06-07T20:04:49.695Z,17.00
2018-06-07T20:07:18.070Z,17.00
2018-06-07T20:09:46.444Z,17.00
2018-06-07T20:12:14.766Z,17.00
2018-06-07T20:14:43.093Z,16.90
2018-06-07T20:17:11.287Z,16.90
2018-06-07T20:19:39.618Z,16.80
2018-06-07T20:22:08.171Z,16.80
2018-06-07T20:24:36.708Z,16.70
2018-06-07T20:27:05.194Z,16.60
2018-06-07T20:29:33.537Z,16.60
2018-06-07T20:32:01.797Z,16.60
2018-06-07T20:34:30.030Z,16.50
2018-06-07T20:36:58.568Z,16.40
2018-06-07T20:39:27.051Z,16.30
2018-06-07T20:41:55.329Z,16.30
2018-06-07T20:44:23.783Z,16.30
2018-06-07T20:46:52.190Z,16.20
2018-06-07T20:49:20.374Z,16.10
2018-06-07T20:51:48.636Z,16.10
2018-06-07T20:54:16.850Z,16.10
2018-06-07T20:56:45.648Z,16.10
2018-06-07T20:59:15.341Z,16.10
2018-06-07T21:01:44.892Z,16.00
2018-06-07T21:04:13.538Z,16.10
2018-06-07T21:06:42.117Z,16.00
2018-06-07T21:09:11.519Z,16.00
2018-06-07T21:11:40.838Z,16.00
2018-06-07T21:14:09.524Z,16.00
2018-06-07T21:16:38.055Z,15.90
2018-06-07T21:19:06.332Z,15.90
2018-06-07T21:21:34.655Z,15.90
2018-06-07T21:24:02.943Z,15.80
2018-06-07T21:26:32.388Z,15.80
2018-06-07T21:29:01.054Z,15.80
2018-06-07T21:31:29.246Z,15.80
2018-06-07T21:33:57.467Z,15.80
2018-06-07T21:36:25.887Z,15.70
2018-06-07T21:38:54.059Z,15.60
2018-06-07T21:41:22.343Z,15.60
2018-06-07T21:43:50.973Z,15.60
2018-06-07T21:46:19.274Z,15.50
2018-06-07T21:48:47.442Z,15.50
2018-06-07T21:51:15.635Z,15.50
2018-06-07T21:53:43.926Z,15.50
2018-06-07T21:56:12.114Z,15.50
2018-06-07T21:58:41.070Z,15.50
2018-06-07T22:01:09.271Z,15.60
2018-06-07T22:03:37.597Z,15.70
2018-06-07T22:06:05.747Z,15.70
2018-06-07T22:08:33.983Z,15.70
2018-06-07T22:11:02.166Z,15.70
2018-06-07T22:13:30.350Z,15.70
2018-06-07T22:15:58.503Z,15.70
2018-06-07T22:18:26.638Z,15.70
2018-06-07T22:20:54.846Z,15.70
2018-06-07T22:23:23.000Z,15.70
2018-06-07T22:25:51.243Z,15.80
2018-06-07T22:28:19.362Z,15.80
2018-06-07T22:30:47.507Z,15.80
2018-06-07T22:33:15.640Z,15.80
2018-06-07T22:35:43.811Z,15.80
2018-06-07T22:38:11.963Z,15.80
2018-06-07T22:40:40.091Z,15.80
2018-06-07T22:43:08.238Z,15.80
2018-06-07T22:45:36.426Z,15.80
2018-06-07T22:48:04.662Z,15.80
2018-06-07T22:50:32.833Z,15.80
2018-06-07T22:53:01.019Z,15.70
2018-06-07T22:55:29.199Z,15.70
2018-06-07T22:57:57.353Z,15.60
2018-06-07T23:00:26.098Z,15.60
2018-06-07T23:02:55.223Z,15.50
2018-06-07T23:05:24.113Z,15.40
2018-06-07T23:07:52.619Z,15.40
2018-06-07T23:10:21.316Z,15.30
2018-06-07T23:12:49.936Z,15.30
2018-06-07T23:15:18.840Z,15.20
2018-06-07T23:17:47.517Z,15.10
2018-06-07T23:20:15.822Z,15.00
2018-06-07T23:22:43.978Z,14.90
2018-06-07T23:25:12.131Z,14.90
2018-06-07T23:27:40.258Z,14.90
2018-06-07T23:30:08.374Z,14.80
2018-06-07T23:32:37.545Z,14.80
2018-06-07T23:35:05.843Z,14.90
2018-06-07T23:37:34.013Z,15.00
2018-06-07T23:40:02.150Z,15.00
2018-06-07T23:42:30.294Z,15.00
2018-06-07T23:44:58.418Z,15.10
2018-06-07T23:47:26.558Z,15.00
2018-06-07T23:49:54.690Z,15.00
2018-06-07T23:52:22.838Z,15.00
2018-06-07T23:54:50.990Z,15.10
2018-06-07T23:57:19.118Z,15.10
2018-06-07T23:59:47.261Z,15.20
